Terminal Aerodrome Forecast
Issued by NWS

Home | Current Version | Previous Version | Text Only | Print | Product List | Glossary On
Versions: 1 2 3 4 5 6 7 8 9 10 11 12 13 14 15 16 17 18 19
000
FTUS43 KPAH 240854 AAA
TAFCGI
TAF AMD
KCGI 240854Z 2409/2506 35005KT P6SM SCT008 OVC015
     FM241100 35010KT P6SM OVC008
     FM241600 35009KT P6SM OVC010
     FM241700 34010KT P6SM OVC020
     FM242100 34010KT P6SM BKN040
     FM250100 33005KT P6SM BKN060=

USA.gov is the U.S. government's official web portal to all federal, state and local government web resources and services.